Time;durP1;ratioP1;P1;durP2;ratioP2;P2;SDS_P1;SDS_P2;PMS_P1;PMS_P2;Temp;Humidity;BMP_temperature;BMP_pressure;BME280_temperature;BME280_humidity;BME280_pressure;Samples;Min_cycle;Max_cycle;Signal;HPM_P1;HPM_P2
2021/05/13 00:01:06;;;;;;;8.00;4.10;;;;;;;;;;5093139;28;20351;-75
2021/05/13 00:03:34;;;;;;;6.53;4.53;;;;;;;;;;5094018;28;20693;-75
2021/05/13 00:06:01;;;;;;;6.60;4.20;;;;;;;;;;5094480;28;20222;-75
2021/05/13 00:08:27;;;;;;;6.07;4.00;;;;;;;;;;5093849;28;20211;-75
2021/05/13 00:11:01;;;;;;;6.67;4.10;;;;;;;;;;5094005;28;20304;-75
2021/05/13 00:13:29;;;;;;;6.23;4.10;;;;;;;;;;5093448;28;20842;-75
2021/05/13 00:15:56;;;;;;;7.03;4.00;;;;;;;;;;5093828;28;20287;-75
2021/05/13 00:18:23;;;;;;;6.73;3.83;;;;;;;;;;5094176;28;20233;-75
2021/05/13 00:20:50;;;;;;;6.80;4.13;;;;;;;;;;5093964;28;20390;-75
2021/05/13 00:23:17;;;;;;;7.03;3.70;;;;;;;;;;5093625;28;20311;-75
2021/05/13 00:25:46;;;;;;;7.37;3.70;;;;;;;;;;5092831;28;20325;-76
2021/05/13 00:28:13;;;;;;;8.77;3.90;;;;;;;;;;5093260;28;20534;-75
2021/05/13 00:30:41;;;;;;;8.40;3.67;;;;;;;;;;5094081;28;20253;-75
2021/05/13 00:33:08;;;;;;;8.03;3.80;;;;;;;;;;5093829;28;20204;-75
2021/05/13 00:35:35;;;;;;;7.87;4.00;;;;;;;;;;5093552;28;20275;-75
2021/05/13 00:38:01;;;;;;;9.03;4.30;;;;;;;;;;5093902;28;20291;-75
2021/05/13 00:40:28;;;;;;;6.53;3.77;;;;;;;;;;5093600;28;20272;-75
2021/05/13 00:42:55;;;;;;;8.67;4.20;;;;;;;;;;5093595;28;20200;-75
2021/05/13 00:45:22;;;;;;;6.67;3.93;;;;;;;;;;5093470;28;20291;-75
2021/05/13 00:48:01;;;;;;;5.47;3.40;;;;;;;;;;5093746;28;20209;-76
2021/05/13 00:50:29;;;;;;;8.80;3.80;;;;;;;;;;5093167;28;20639;-75
2021/05/13 00:52:56;;;;;;;6.67;3.80;;;;;;;;;;5093464;28;20605;-75
2021/05/13 00:55:22;;;;;;;9.03;3.57;;;;;;;;;;5093150;28;20241;-75
2021/05/13 00:57:52;;;;;;;6.17;3.80;;;;;;;;;;5093669;28;20297;-75
2021/05/13 01:03:17;;;;;;;7.83;4.37;;;;;;;;;;5031025;28;20621;-75
2021/05/13 01:05:44;;;;;;;8.03;4.13;;;;;;;;;;5030393;28;20298;-75
2021/05/13 01:08:11;;;;;;;8.83;4.50;;;;;;;;;;5030892;28;20769;-75
2021/05/13 01:10:39;;;;;;;9.03;4.70;;;;;;;;;;5030504;28;20683;-75
2021/05/13 01:13:08;;;;;;;11.23;5.17;;;;;;;;;;5030734;28;20284;-75
2021/05/13 01:15:40;;;;;;;9.37;4.40;;;;;;;;;;5030595;28;20198;-75
2021/05/13 01:18:13;;;;;;;12.47;4.43;;;;;;;;;;5030521;28;20329;-75
2021/05/13 01:20:41;;;;;;;7.87;4.23;;;;;;;;;;5030762;28;20257;-75
2021/05/13 01:23:11;;;;;;;7.47;4.17;;;;;;;;;;5030647;28;20236;-75
2021/05/13 01:25:43;;;;;;;5.57;3.33;;;;;;;;;;5013627;28;20224;-75
2021/05/13 01:28:09;;;;;;;7.43;3.70;;;;;;;;;;5030420;28;20278;-75
2021/05/13 01:30:36;;;;;;;6.53;3.50;;;;;;;;;;5028716;28;20715;-75
2021/05/13 01:33:03;;;;;;;6.97;3.50;;;;;;;;;;5029799;28;20285;-75
2021/05/13 01:35:30;;;;;;;8.97;3.60;;;;;;;;;;5030324;28;20203;-75
2021/05/13 01:38:07;;;;;;;7.93;3.90;;;;;;;;;;5076110;28;20607;-75
2021/05/13 01:40:36;;;;;;;7.57;3.90;;;;;;;;;;5092630;28;20223;-75
2021/05/13 01:43:03;;;;;;;8.07;3.90;;;;;;;;;;5092298;28;20291;-75
2021/05/13 01:45:29;;;;;;;7.10;3.57;;;;;;;;;;5091886;28;20381;-75
2021/05/13 01:48:01;;;;;;;8.17;3.90;;;;;;;;;;5092758;28;20298;-75
2021/05/13 01:50:29;;;;;;;9.60;4.00;;;;;;;;;;5092269;28;20204;-75
2021/05/13 01:52:55;;;;;;;7.80;4.00;;;;;;;;;;5092651;28;20207;-75
2021/05/13 01:55:22;;;;;;;9.00;4.40;;;;;;;;;;5091928;28;20212;-75
2021/05/13 01:57:50;;;;;;;9.60;4.23;;;;;;;;;;5092595;28;20285;-75
2021/05/13 02:00:17;;;;;;;8.10;4.00;;;;;;;;;;5091554;28;20257;-75
2021/05/13 02:02:44;;;;;;;8.90;4.27;;;;;;;;;;5092444;28;20198;-75
2021/05/13 02:05:11;;;;;;;9.10;3.63;;;;;;;;;;5091504;28;20230;-75
2021/05/13 02:07:37;;;;;;;8.07;4.57;;;;;;;;;;5091851;28;20267;-75
2021/05/13 02:10:05;;;;;;;9.43;4.73;;;;;;;;;;5092130;28;20199;-75
2021/05/13 02:12:32;;;;;;;10.90;4.67;;;;;;;;;;5091851;28;20217;-75
2021/05/13 02:14:59;;;;;;;9.70;4.30;;;;;;;;;;5092514;28;20329;-75
2021/05/13 02:17:26;;;;;;;7.53;4.20;;;;;;;;;;5091569;28;20286;-75
2021/05/13 02:19:52;;;;;;;9.00;4.47;;;;;;;;;;5092201;28;20717;-75
2021/05/13 02:22:19;;;;;;;9.03;4.03;;;;;;;;;;5090794;28;20365;-75
2021/05/13 02:24:46;;;;;;;7.40;3.77;;;;;;;;;;5092343;28;20254;-76
2021/05/13 02:27:12;;;;;;;8.63;3.87;;;;;;;;;;5091319;28;20217;-75
2021/05/13 02:29:39;;;;;;;10.97;4.27;;;;;;;;;;5092014;28;20286;-76
2021/05/13 02:32:07;;;;;;;8.03;3.70;;;;;;;;;;5092059;28;20209;-76
2021/05/13 02:34:34;;;;;;;8.60;3.93;;;;;;;;;;5091737;28;20240;-75
2021/05/13 02:37:00;;;;;;;9.40;4.03;;;;;;;;;;5091830;28;20206;-76
2021/05/13 02:39:27;;;;;;;9.37;3.73;;;;;;;;;;5091948;28;20297;-75
2021/05/13 02:41:54;;;;;;;10.43;3.53;;;;;;;;;;5092050;28;20296;-76
2021/05/13 02:44:20;;;;;;;7.87;3.33;;;;;;;;;;5090617;28;20291;-75
2021/05/13 02:46:47;;;;;;;7.67;2.90;;;;;;;;;;5091689;28;20699;-75
2021/05/13 02:49:15;;;;;;;7.03;3.57;;;;;;;;;;5075610;28;20304;-76
2021/05/13 02:51:41;;;;;;;9.70;3.50;;;;;;;;;;5087077;28;20285;-75
2021/05/13 02:54:08;;;;;;;6.97;3.60;;;;;;;;;;5091359;28;20286;-75
2021/05/13 02:56:35;;;;;;;7.90;3.10;;;;;;;;;;5093902;28;20225;-75
2021/05/13 02:59:01;;;;;;;8.17;3.60;;;;;;;;;;5095784;28;20311;-76
2021/05/13 03:01:29;;;;;;;13.60;3.90;;;;;;;;;;5094791;28;20236;-76
2021/05/13 03:03:57;;;;;;;9.93;3.40;;;;;;;;;;5095581;28;20200;-75
2021/05/13 03:06:25;;;;;;;9.27;3.50;;;;;;;;;;5095554;28;20314;-75
2021/05/13 03:08:54;;;;;;;11.30;3.70;;;;;;;;;;5095368;28;20238;-75
2021/05/13 03:11:21;;;;;;;10.67;3.13;;;;;;;;;;5095561;28;20207;-74
2021/05/13 03:13:50;;;;;;;10.23;3.33;;;;;;;;;;5095154;28;20300;-74
2021/05/13 03:16:16;;;;;;;10.33;3.30;;;;;;;;;;5095490;28;20200;-74
2021/05/13 03:18:46;;;;;;;6.63;3.00;;;;;;;;;;5095561;28;20238;-75
2021/05/13 03:21:18;;;;;;;7.80;3.20;;;;;;;;;;5094732;28;20604;-75
2021/05/13 03:23:51;;;;;;;6.50;3.00;;;;;;;;;;5094871;28;20242;-74
2021/05/13 03:26:26;;;;;;;6.83;3.00;;;;;;;;;;5095122;28;20247;-74
2021/05/13 03:28:52;;;;;;;12.90;3.00;;;;;;;;;;5095212;28;20231;-74
2021/05/13 03:31:19;;;;;;;8.53;3.40;;;;;;;;;;5095320;28;20283;-74
2021/05/13 03:33:46;;;;;;;7.73;3.50;;;;;;;;;;5094952;28;20286;-74
2021/05/13 03:36:12;;;;;;;8.80;3.30;;;;;;;;;;5095188;28;20235;-74
2021/05/13 03:38:39;;;;;;;4.80;3.00;;;;;;;;;;5094703;28;20702;-74
2021/05/13 03:41:07;;;;;;;7.30;3.07;;;;;;;;;;5095053;28;20731;-75
2021/05/13 03:43:34;;;;;;;7.73;3.00;;;;;;;;;;5094881;28;20206;-75
2021/05/13 03:46:00;;;;;;;8.23;3.03;;;;;;;;;;5094436;28;20255;-75
2021/05/13 03:48:27;;;;;;;9.00;3.10;;;;;;;;;;5094951;28;20302;-75
2021/05/13 03:50:54;;;;;;;6.97;2.93;;;;;;;;;;5093891;28;20233;-75
2021/05/13 03:53:21;;;;;;;6.40;2.93;;;;;;;;;;5094456;28;20254;-75
2021/05/13 03:55:51;;;;;;;9.50;2.93;;;;;;;;;;5094513;28;20244;-75
2021/05/13 03:58:20;;;;;;;8.53;3.20;;;;;;;;;;5094748;28;20233;-74
2021/05/13 04:00:59;;;;;;;6.67;3.30;;;;;;;;;;5094818;28;20293;-75
2021/05/13 04:03:26;;;;;;;10.13;3.40;;;;;;;;;;5095018;28;20198;-74
2021/05/13 04:05:53;;;;;;;7.53;3.27;;;;;;;;;;5094076;28;20316;-74
2021/05/13 04:08:19;;;;;;;7.33;2.87;;;;;;;;;;5093410;28;20282;-74
2021/05/13 04:10:46;;;;;;;5.40;3.30;;;;;;;;;;5094153;28;20292;-75
2021/05/13 04:13:14;;;;;;;11.57;3.37;;;;;;;;;;5094156;28;20297;-74
2021/05/13 04:15:45;;;;;;;9.60;3.17;;;;;;;;;;5094374;28;20205;-74
2021/05/13 04:18:12;;;;;;;11.57;3.60;;;;;;;;;;5094076;28;20252;-74
2021/05/13 04:20:40;;;;;;;8.47;3.23;;;;;;;;;;5094074;28;20252;-75
2021/05/13 04:23:07;;;;;;;10.97;3.30;;;;;;;;;;5094035;28;20803;-74
2021/05/13 04:25:34;;;;;;;11.00;3.53;;;;;;;;;;5094159;28;20210;-75
2021/05/13 04:28:01;;;;;;;8.60;3.27;;;;;;;;;;5094311;28;20198;-74
2021/05/13 04:30:27;;;;;;;10.07;3.33;;;;;;;;;;5094118;28;20224;-74
2021/05/13 04:32:55;;;;;;;10.50;3.20;;;;;;;;;;5093801;28;20288;-74
2021/05/13 04:35:22;;;;;;;6.60;3.53;;;;;;;;;;5093226;28;20285;-74
2021/05/13 04:37:49;;;;;;;7.57;3.53;;;;;;;;;;5094154;28;20194;-74
2021/05/13 04:40:16;;;;;;;10.83;3.77;;;;;;;;;;5093962;28;20287;-74
2021/05/13 04:42:43;;;;;;;8.50;3.17;;;;;;;;;;5094125;28;20244;-74
2021/05/13 04:45:10;;;;;;;12.73;3.70;;;;;;;;;;5093522;28;20233;-75
2021/05/13 04:47:51;;;;;;;10.90;3.47;;;;;;;;;;5093409;28;20281;-75
2021/05/13 04:50:19;;;;;;;8.60;3.53;;;;;;;;;;5093226;28;20216;-74
2021/05/13 04:52:46;;;;;;;9.60;3.40;;;;;;;;;;5093637;28;20284;-75
2021/05/13 04:55:13;;;;;;;9.50;4.00;;;;;;;;;;5093792;28;20319;-75
2021/05/13 04:57:40;;;;;;;10.20;3.50;;;;;;;;;;5093180;28;20642;-75
2021/05/13 05:00:08;;;;;;;15.27;3.47;;;;;;;;;;5093229;28;20233;-74
2021/05/13 05:02:34;;;;;;;11.60;3.90;;;;;;;;;;5092642;28;20294;-74
2021/05/13 05:05:01;;;;;;;12.00;4.23;;;;;;;;;;5093232;28;20299;-75
2021/05/13 05:07:29;;;;;;;9.00;3.63;;;;;;;;;;5092927;28;20314;-74
2021/05/13 05:09:55;;;;;;;9.77;3.40;;;;;;;;;;5093247;28;20287;-75
2021/05/13 05:12:22;;;;;;;8.47;3.60;;;;;;;;;;5093208;28;20201;-75
2021/05/13 05:14:49;;;;;;;11.27;3.30;;;;;;;;;;5092968;28;20292;-74
2021/05/13 05:17:15;;;;;;;11.17;3.40;;;;;;;;;;5092819;28;20703;-75
2021/05/13 05:19:42;;;;;;;12.17;3.50;;;;;;;;;;5092239;28;20263;-75
2021/05/13 05:22:09;;;;;;;9.90;3.80;;;;;;;;;;5093211;28;20258;-74
2021/05/13 05:24:36;;;;;;;7.83;3.60;;;;;;;;;;5092473;28;20300;-75
2021/05/13 05:27:03;;;;;;;10.23;3.37;;;;;;;;;;5092163;28;20312;-74
2021/05/13 05:29:30;;;;;;;8.47;3.63;;;;;;;;;;5092825;28;20202;-75
2021/05/13 05:31:56;;;;;;;14.30;3.80;;;;;;;;;;5092237;28;20237;-75
2021/05/13 05:34:23;;;;;;;7.80;3.60;;;;;;;;;;5092692;28;20342;-74
2021/05/13 05:36:50;;;;;;;11.50;3.87;;;;;;;;;;5091809;28;20221;-75
2021/05/13 05:39:17;;;;;;;11.10;3.40;;;;;;;;;;5092537;28;20241;-75
2021/05/13 05:41:44;;;;;;;8.20;3.23;;;;;;;;;;5092838;28;20271;-75
2021/05/13 05:44:12;;;;;;;8.87;3.13;;;;;;;;;;5092543;28;20205;-75
2021/05/13 05:46:40;;;;;;;11.33;3.47;;;;;;;;;;5092458;28;20624;-75
2021/05/13 05:49:07;;;;;;;7.43;3.63;;;;;;;;;;5092610;28;20335;-75
2021/05/13 05:51:33;;;;;;;10.47;3.90;;;;;;;;;;5092364;28;20836;-75
2021/05/13 05:54:00;;;;;;;10.40;3.67;;;;;;;;;;5091464;28;20969;-76
2021/05/13 05:56:27;;;;;;;6.40;4.07;;;;;;;;;;5092693;28;20222;-74
2021/05/13 05:58:54;;;;;;;9.57;4.27;;;;;;;;;;5091796;28;20240;-75
2021/05/13 06:01:21;;;;;;;8.77;4.43;;;;;;;;;;5091755;28;20229;-75
2021/05/13 06:03:48;;;;;;;10.70;3.83;;;;;;;;;;5091960;28;20226;-74
2021/05/13 06:06:14;;;;;;;8.17;4.00;;;;;;;;;;5071889;28;20315;-75
2021/05/13 06:08:41;;;;;;;7.03;4.20;;;;;;;;;;5076613;28;20285;-74
2021/05/13 06:11:08;;;;;;;10.00;4.57;;;;;;;;;;5092192;28;20226;-75
2021/05/13 06:13:35;;;;;;;12.50;4.67;;;;;;;;;;5092129;28;20693;-75
2021/05/13 06:16:02;;;;;;;10.53;4.70;;;;;;;;;;5091641;28;20256;-75
2021/05/13 06:18:29;;;;;;;9.50;4.60;;;;;;;;;;5092150;28;20289;-74
2021/05/13 06:20:55;;;;;;;6.73;4.17;;;;;;;;;;5091907;28;20520;-75
2021/05/13 06:23:22;;;;;;;9.47;4.60;;;;;;;;;;5092134;28;20246;-75
2021/05/13 06:25:49;;;;;;;7.30;4.20;;;;;;;;;;5091629;28;20222;-74
2021/05/13 06:28:15;;;;;;;11.33;4.70;;;;;;;;;;5090435;28;20205;-75
2021/05/13 06:30:45;;;;;;;10.37;4.73;;;;;;;;;;5090735;28;20293;-75
2021/05/13 06:33:12;;;;;;;8.63;4.67;;;;;;;;;;5086006;28;20221;-75
2021/05/13 06:35:39;;;;;;;8.33;4.50;;;;;;;;;;5091959;28;20225;-78
2021/05/13 06:38:05;;;;;;;8.10;4.60;;;;;;;;;;5091328;28;20281;-75
2021/05/13 06:40:32;;;;;;;8.20;4.90;;;;;;;;;;5090323;28;20396;-75
2021/05/13 06:43:00;;;;;;;5.30;4.20;;;;;;;;;;5083724;28;20292;-77
2021/05/13 06:45:26;;;;;;;8.30;4.37;;;;;;;;;;5091102;28;20200;-75
2021/05/13 06:47:53;;;;;;;9.47;4.17;;;;;;;;;;5091543;28;20248;-78
2021/05/13 06:50:21;;;;;;;9.57;4.73;;;;;;;;;;5091380;28;20226;-76
2021/05/13 06:52:48;;;;;;;8.50;4.20;;;;;;;;;;5091297;28;20206;-75
2021/05/13 06:55:14;;;;;;;10.20;4.17;;;;;;;;;;5091025;28;20283;-75
2021/05/13 06:57:42;;;;;;;10.03;4.30;;;;;;;;;;5089663;28;20229;-75
2021/05/13 07:00:09;;;;;;;10.73;4.37;;;;;;;;;;5091164;28;20206;-75
2021/05/13 07:02:36;;;;;;;13.77;4.30;;;;;;;;;;5090880;28;20202;-75
2021/05/13 07:05:02;;;;;;;8.27;3.60;;;;;;;;;;5091545;28;20596;-75
2021/05/13 07:07:30;;;;;;;8.60;3.70;;;;;;;;;;5091270;28;20230;-77
2021/05/13 07:09:57;;;;;;;6.60;3.50;;;;;;;;;;5090666;28;20588;-77
2021/05/13 07:12:24;;;;;;;9.97;4.10;;;;;;;;;;5090678;28;20290;-77
2021/05/13 07:14:50;;;;;;;8.17;3.43;;;;;;;;;;5091131;28;20198;-77
2021/05/13 07:17:17;;;;;;;8.17;3.33;;;;;;;;;;5091199;28;20718;-77
2021/05/13 07:19:44;;;;;;;7.27;3.40;;;;;;;;;;5090285;28;20738;-76
2021/05/13 07:22:10;;;;;;;6.27;3.00;;;;;;;;;;5090782;28;20322;-76
2021/05/13 07:24:38;;;;;;;7.17;3.50;;;;;;;;;;5090783;28;20199;-76
2021/05/13 07:27:09;;;;;;;6.37;3.20;;;;;;;;;;5090278;28;20229;-76
2021/05/13 07:29:36;;;;;;;6.90;3.20;;;;;;;;;;5091406;28;20200;-77
2021/05/13 07:32:03;;;;;;;6.33;3.07;;;;;;;;;;5090669;28;20211;-77
2021/05/13 07:34:29;;;;;;;7.23;3.40;;;;;;;;;;5090945;28;20199;-76
2021/05/13 07:36:56;;;;;;;8.47;3.20;;;;;;;;;;5091174;28;20273;-77
2021/05/13 07:39:23;;;;;;;5.70;3.03;;;;;;;;;;5091516;28;20212;-77
2021/05/13 07:41:50;;;;;;;6.97;3.83;;;;;;;;;;5090448;28;20198;-77
2021/05/13 07:44:17;;;;;;;5.10;3.53;;;;;;;;;;5093891;28;20289;-77
2021/05/13 07:46:45;;;;;;;8.17;3.83;;;;;;;;;;5094840;28;20218;-77
2021/05/13 07:49:11;;;;;;;7.03;3.53;;;;;;;;;;5094203;28;20237;-77
2021/05/13 07:51:41;;;;;;;5.70;3.40;;;;;;;;;;5094686;28;20234;-77
2021/05/13 07:54:08;;;;;;;5.70;2.97;;;;;;;;;;5094625;28;20206;-77
2021/05/13 07:56:35;;;;;;;7.33;3.20;;;;;;;;;;5094597;28;20273;-76
2021/05/13 07:59:02;;;;;;;5.03;2.60;;;;;;;;;;5094350;28;20289;-77
2021/05/13 08:01:29;;;;;;;4.97;2.50;;;;;;;;;;5094871;28;20233;-76
2021/05/13 08:03:56;;;;;;;9.27;2.90;;;;;;;;;;5093765;28;20198;-77
2021/05/13 08:06:22;;;;;;;6.27;3.67;;;;;;;;;;5093619;28;20308;-76
2021/05/13 08:08:49;;;;;;;6.97;3.20;;;;;;;;;;5093969;28;20198;-76
2021/05/13 08:11:15;;;;;;;5.40;2.83;;;;;;;;;;5093747;28;20198;-76
2021/05/13 08:13:42;;;;;;;5.30;3.00;;;;;;;;;;5093711;28;20285;-76
2021/05/13 08:16:10;;;;;;;5.37;3.20;;;;;;;;;;5093476;28;20650;-77
2021/05/13 08:18:36;;;;;;;7.13;3.10;;;;;;;;;;5098735;28;20238;-78
2021/05/13 08:21:03;;;;;;;4.07;2.10;;;;;;;;;;5097854;28;20660;-77
2021/05/13 08:23:30;;;;;;;4.80;1.80;;;;;;;;;;5093824;28;20253;-77
2021/05/13 08:25:56;;;;;;;4.57;1.73;;;;;;;;;;5093311;28;20313;-76
2021/05/13 08:28:23;;;;;;;4.27;1.93;;;;;;;;;;5093501;28;20678;-76
2021/05/13 08:30:50;;;;;;;6.63;2.20;;;;;;;;;;5094102;28;20251;-76
2021/05/13 08:33:17;;;;;;;3.07;1.47;;;;;;;;;;5093975;28;20285;-76
2021/05/13 08:35:44;;;;;;;3.93;1.80;;;;;;;;;;5093823;28;20226;-76
2021/05/13 08:38:11;;;;;;;4.17;1.50;;;;;;;;;;5093978;28;20233;-77
2021/05/13 08:40:37;;;;;;;2.77;1.50;;;;;;;;;;5092736;28;20241;-78
2021/05/13 08:43:04;;;;;;;5.33;1.40;;;;;;;;;;5092290;28;20741;-79
2021/05/13 08:45:34;;;;;;;3.87;1.53;;;;;;;;;;5095344;28;20192;-76
2021/05/13 08:48:01;;;;;;;4.27;1.97;;;;;;;;;;5098518;28;20775;-77
2021/05/13 08:50:29;;;;;;;5.93;2.10;;;;;;;;;;5095893;28;20202;-77
2021/05/13 08:52:56;;;;;;;3.87;1.93;;;;;;;;;;5095998;28;20654;-77
2021/05/13 08:55:23;;;;;;;5.47;1.67;;;;;;;;;;5095185;28;20286;-77
2021/05/13 08:57:49;;;;;;;2.30;1.10;;;;;;;;;;5092690;28;20191;-77
2021/05/13 09:00:17;;;;;;;5.93;1.37;;;;;;;;;;5093113;28;20671;-77
2021/05/13 09:02:49;;;;;;;5.23;1.40;;;;;;;;;;5092788;28;20281;-77
2021/05/13 09:05:15;;;;;;;3.43;1.70;;;;;;;;;;5092928;28;20230;-77
2021/05/13 09:07:43;;;;;;;4.60;2.00;;;;;;;;;;5092949;28;20313;-77
2021/05/13 09:10:10;;;;;;;3.10;1.83;;;;;;;;;;5100406;28;20285;-76
2021/05/13 09:12:39;;;;;;;3.87;2.30;;;;;;;;;;5100244;28;20209;-76
2021/05/13 09:15:08;;;;;;;3.10;1.97;;;;;;;;;;5091749;28;20194;-77
2021/05/13 09:17:35;;;;;;;5.30;1.70;;;;;;;;;;5094328;28;20723;-77
2021/05/13 09:20:02;;;;;;;3.80;1.17;;;;;;;;;;5097648;27;20636;-76
2021/05/13 09:22:30;;;;;;;3.80;1.80;;;;;;;;;;5094703;28;20304;-77
2021/05/13 09:24:59;;;;;;;2.37;1.07;;;;;;;;;;5098961;28;20335;-77
2021/05/13 09:27:28;;;;;;;4.53;1.50;;;;;;;;;;5094348;28;20618;-77
2021/05/13 09:30:06;;;;;;;2.27;1.00;;;;;;;;;;5098869;28;20198;-77
2021/05/13 09:32:33;;;;;;;3.87;1.33;;;;;;;;;;5092368;28;20289;-76
2021/05/13 09:35:05;;;;;;;2.40;1.20;;;;;;;;;;5092050;28;20198;-77
2021/05/13 09:37:36;;;;;;;3.47;1.40;;;;;;;;;;5091816;28;20729;-78
2021/05/13 09:40:04;;;;;;;2.77;1.10;;;;;;;;;;5092398;28;20233;-77
2021/05/13 09:42:31;;;;;;;3.77;1.20;;;;;;;;;;5092828;28;20206;-78
2021/05/13 09:44:58;;;;;;;1.87;0.97;;;;;;;;;;5092830;28;20302;-78
2021/05/13 09:47:26;;;;;;;3.47;1.30;;;;;;;;;;5091971;28;20352;-77
2021/05/13 09:50:04;;;;;;;3.03;1.40;;;;;;;;;;5092549;28;20650;-77
2021/05/13 09:52:46;;;;;;;5.70;1.85;;;;;;;;;;5089499;28;20251;-77
2021/05/13 09:55:15;;;;;;;2.33;0.98;;;;;;;;;;5088950;28;20259;-77
2021/05/13 09:57:44;;;;;;;2.72;0.82;;;;;;;;;;5091262;28;20221;-77
2021/05/13 10:00:11;;;;;;;2.22;0.63;;;;;;;;;;5091461;28;20534;-74
2021/05/13 10:02:37;;;;;;;4.03;1.30;;;;;;;;;;5092019;28;20307;-78
2021/05/13 10:05:05;;;;;;;3.58;1.05;;;;;;;;;;5091386;28;20240;-78
2021/05/13 10:07:32;;;;;;;3.22;1.20;;;;;;;;;;5090914;28;20246;-78
2021/05/13 10:09:58;;;;;;;2.40;1.10;;;;;;;;;;5072361;28;20662;-78
2021/05/13 10:12:26;;;;;;;2.72;0.93;;;;;;;;;;5084534;28;20202;-78
2021/05/13 10:14:53;;;;;;;3.85;0.93;;;;;;;;;;5091516;28;20265;-78
2021/05/13 10:17:20;;;;;;;2.75;0.95;;;;;;;;;;5091507;28;20636;-78
2021/05/13 10:19:48;;;;;;;4.13;1.23;;;;;;;;;;5090908;28;20700;-77
2021/05/13 10:22:16;;;;;;;3.92;1.50;;;;;;;;;;5090911;28;20375;-78
2021/05/13 10:24:43;;;;;;;3.47;1.30;;;;;;;;;;5091263;28;20198;-78
2021/05/13 10:27:17;;;;;;;3.22;1.40;;;;;;;;;;5090222;28;20694;-78
2021/05/13 10:29:44;;;;;;;3.45;1.10;;;;;;;;;;5091152;28;20202;-76
2021/05/13 10:32:14;;;;;;;7.72;5.10;;;;;;;;;;5090924;28;20281;-78
2021/05/13 10:34:51;;;;;;;3.55;2.05;;;;;;;;;;5091497;28;20205;-77
2021/05/13 10:37:19;;;;;;;3.50;2.08;;;;;;;;;;5090678;28;20218;-77
2021/05/13 10:40:04;;;;;;;3.33;1.50;;;;;;;;;;5090745;28;20210;-77
2021/05/13 10:42:31;;;;;;;3.55;1.17;;;;;;;;;;5091461;28;20229;-77
2021/05/13 10:44:59;;;;;;;4.65;1.80;;;;;;;;;;5093821;28;20206;-77
2021/05/13 10:47:29;;;;;;;4.63;1.75;;;;;;;;;;5091489;28;20308;-77
2021/05/13 10:49:56;;;;;;;3.90;1.73;;;;;;;;;;5090177;28;20642;-77
2021/05/13 10:52:30;;;;;;;4.28;1.80;;;;;;;;;;5090878;28;20248;-77
2021/05/13 10:54:57;;;;;;;5.97;1.80;;;;;;;;;;5091217;28;20198;-78
2021/05/13 10:57:24;;;;;;;3.75;1.33;;;;;;;;;;5091652;28;20201;-77
2021/05/13 11:00:09;;;;;;;2.60;1.00;;;;;;;;;;5090393;28;20291;-78
2021/05/13 11:02:37;;;;;;;2.25;1.10;;;;;;;;;;5091223;28;20285;-77
2021/05/13 11:05:19;;;;;;;4.70;1.80;;;;;;;;;;5090892;28;20226;-77
2021/05/13 11:07:46;;;;;;;4.57;2.28;;;;;;;;;;5090914;28;20253;-77
2021/05/13 11:10:12;;;;;;;8.23;3.70;;;;;;;;;;5090047;28;20281;-77
2021/05/13 11:12:42;;;;;;;3.42;1.13;;;;;;;;;;5090803;28;20199;-76
2021/05/13 11:15:16;;;;;;;3.67;2.17;;;;;;;;;;5090805;28;20210;-76
2021/05/13 11:18:06;;;;;;;7.63;3.53;;;;;;;;;;5093863;28;20197;-77
2021/05/13 11:20:33;;;;;;;2.20;1.20;;;;;;;;;;5095138;28;20198;-77
2021/05/13 11:23:01;;;;;;;2.75;1.25;;;;;;;;;;5094514;28;20230;-77
2021/05/13 11:25:35;;;;;;;2.35;1.00;;;;;;;;;;5094600;28;20814;-77
2021/05/13 11:28:02;;;;;;;2.70;0.88;;;;;;;;;;5094525;28;20673;-78
2021/05/13 11:30:28;;;;;;;2.65;0.90;;;;;;;;;;5094715;28;20202;-77
2021/05/13 11:32:55;;;;;;;3.20;0.95;;;;;;;;;;5094598;28;20202;-78
2021/05/13 11:35:23;;;;;;;2.50;1.10;;;;;;;;;;5093001;28;20826;-76
2021/05/13 11:37:51;;;;;;;2.13;0.80;;;;;;;;;;5100671;28;20273;-80
2021/05/13 11:40:22;;;;;;;3.97;1.15;;;;;;;;;;5093611;28;20615;-79
2021/05/13 11:42:49;;;;;;;3.08;0.98;;;;;;;;;;5111129;28;20198;-80
2021/05/13 11:45:16;;;;;;;3.13;0.82;;;;;;;;;;5114785;28;20205;-80
2021/05/13 11:47:43;;;;;;;1.70;0.70;;;;;;;;;;5100571;28;20270;-80
2021/05/13 11:50:11;;;;;;;2.30;0.70;;;;;;;;;;5105104;28;20285;-80
2021/05/13 11:52:52;;;;;;;1.73;0.85;;;;;;;;;;5096509;28;20206;-80
2021/05/13 11:55:33;;;;;;;2.58;0.80;;;;;;;;;;5094305;28;20277;-80
2021/05/13 11:57:59;;;;;;;2.00;0.90;;;;;;;;;;5079866;28;20692;-78
2021/05/13 12:00:26;;;;;;;2.75;0.80;;;;;;;;;;5092779;28;20226;-78
2021/05/13 12:03:08;;;;;;;2.60;1.25;;;;;;;;;;5095028;28;20194;-79
2021/05/13 12:05:45;;;;;;;4.28;1.60;;;;;;;;;;5101161;28;20232;-80
2021/05/13 12:08:11;;;;;;;3.08;0.98;;;;;;;;;;5100087;28;20260;-80
2021/05/13 12:10:39;;;;;;;3.25;1.27;;;;;;;;;;5093867;28;20203;-80
2021/05/13 12:13:06;;;;;;;3.90;1.30;;;;;;;;;;5102115;28;20227;-80
2021/05/13 12:15:32;;;;;;;2.25;1.10;;;;;;;;;;5094485;28;20206;-80
2021/05/13 12:17:59;;;;;;;2.38;1.10;;;;;;;;;;5094491;28;20301;-79
2021/05/13 12:20:26;;;;;;;1.38;0.70;;;;;;;;;;5094125;28;20293;-77
2021/05/13 12:22:53;;;;;;;2.65;1.00;;;;;;;;;;5093797;28;20262;-76
2021/05/13 12:25:20;;;;;;;1.25;0.60;;;;;;;;;;5093537;28;20285;-76
2021/05/13 12:27:47;;;;;;;2.08;0.90;;;;;;;;;;5093564;28;20222;-77
2021/05/13 12:30:15;;;;;;;2.00;0.77;;;;;;;;;;5092337;28;20232;-77
2021/05/13 12:32:41;;;;;;;2.10;0.80;;;;;;;;;;5093623;28;20285;-76
2021/05/13 12:35:29;;;;;;;1.45;0.80;;;;;;;;;;5093433;28;20642;-76
2021/05/13 12:38:11;;;;;;;3.13;0.88;;;;;;;;;;5090219;28;20681;-77
2021/05/13 12:40:38;;;;;;;2.80;0.93;;;;;;;;;;5094125;28;20414;-76
2021/05/13 12:43:15;;;;;;;3.97;1.30;;;;;;;;;;5088039;28;20237;-77
2021/05/13 12:45:46;;;;;;;2.15;1.30;;;;;;;;;;5091825;28;20248;-76
2021/05/13 12:48:20;;;;;;;3.67;0.93;;;;;;;;;;5092298;28;20217;-77
2021/05/13 12:50:55;;;;;;;3.55;1.10;;;;;;;;;;5093030;28;20202;-76
2021/05/13 12:53:21;;;;;;;3.28;1.42;;;;;;;;;;5092365;28;20230;-76
2021/05/13 12:55:48;;;;;;;2.40;1.40;;;;;;;;;;5092719;28;20210;-77
2021/05/13 12:58:17;;;;;;;2.78;1.15;;;;;;;;;;5096084;28;20289;-76
2021/05/13 13:00:44;;;;;;;3.67;1.40;;;;;;;;;;5090363;28;20262;-77
2021/05/13 13:03:14;;;;;;;2.90;1.10;;;;;;;;;;5092745;28;20198;-77
2021/05/13 13:05:41;;;;;;;3.10;0.90;;;;;;;;;;5091946;28;20281;-77
2021/05/13 13:08:08;;;;;;;1.58;0.60;;;;;;;;;;5092344;28;20301;-77
2021/05/13 13:10:35;;;;;;;1.77;0.60;;;;;;;;;;5091688;28;20289;-77
2021/05/13 13:13:04;;;;;;;2.20;0.80;;;;;;;;;;5091967;28;20237;-77
2021/05/13 13:15:33;;;;;;;1.35;0.70;;;;;;;;;;5092206;28;20197;-77
2021/05/13 13:18:07;;;;;;;2.20;0.60;;;;;;;;;;5092285;28;20197;-77
2021/05/13 13:20:33;;;;;;;1.20;0.50;;;;;;;;;;5092310;28;20286;-77
2021/05/13 13:23:16;;;;;;;1.52;0.70;;;;;;;;;;5091964;28;20230;-77
2021/05/13 13:25:43;;;;;;;1.00;0.50;;;;;;;;;;5091967;28;20332;-78
2021/05/13 13:28:10;;;;;;;0.98;0.47;;;;;;;;;;5092049;28;20811;-77
2021/05/13 13:30:37;;;;;;;0.50;0.30;;;;;;;;;;5092402;28;20314;-77
2021/05/13 13:33:13;;;;;;;1.30;0.30;;;;;;;;;;5092143;28;20198;-77
2021/05/13 13:35:41;;;;;;;1.92;0.40;;;;;;;;;;5091562;28;20205;-77
2021/05/13 13:38:10;;;;;;;0.88;0.50;;;;;;;;;;5091251;28;20225;-77
2021/05/13 13:40:36;;;;;;;1.08;0.40;;;;;;;;;;5086497;28;20229;-77
2021/05/13 13:43:03;;;;;;;0.43;0.20;;;;;;;;;;5092339;28;20205;-77
2021/05/13 13:45:30;;;;;;;1.33;0.50;;;;;;;;;;5091222;28;20234;-78
2021/05/13 13:47:59;;;;;;;1.48;0.50;;;;;;;;;;5091523;28;20214;-77
2021/05/13 13:50:26;;;;;;;2.60;0.40;;;;;;;;;;5091887;28;20217;-77
2021/05/13 13:52:52;;;;;;;0.80;0.43;;;;;;;;;;5092493;28;20285;-77
2021/05/13 13:55:19;;;;;;;1.13;0.60;;;;;;;;;;5092419;28;20235;-77
2021/05/13 13:57:46;;;;;;;1.67;0.50;;;;;;;;;;5092266;28;20286;-76
2021/05/13 14:00:13;;;;;;;1.52;0.60;;;;;;;;;;5090901;28;20289;-76
2021/05/13 14:02:42;;;;;;;1.75;0.60;;;;;;;;;;5091894;28;20229;-76
2021/05/13 14:05:10;;;;;;;1.77;0.80;;;;;;;;;;5086512;28;20204;-77
2021/05/13 14:07:37;;;;;;;1.47;0.73;;;;;;;;;;5091866;28;20314;-76
2021/05/13 14:10:04;;;;;;;1.93;0.70;;;;;;;;;;5091910;28;20289;-76
2021/05/13 14:12:31;;;;;;;2.13;0.80;;;;;;;;;;5091690;28;20206;-76
2021/05/13 14:14:58;;;;;;;2.97;1.20;;;;;;;;;;5091159;28;20285;-75
2021/05/13 14:17:25;;;;;;;5.10;1.20;;;;;;;;;;5090004;28;20194;-76
2021/05/13 14:19:52;;;;;;;4.20;1.30;;;;;;;;;;5089539;28;20206;-76
2021/05/13 14:22:20;;;;;;;3.20;1.40;;;;;;;;;;5084382;28;20332;-76
2021/05/13 14:24:46;;;;;;;3.00;1.20;;;;;;;;;;5087083;28;20199;-76
2021/05/13 14:27:13;;;;;;;3.23;1.10;;;;;;;;;;5090848;28;20258;-75
2021/05/13 14:29:40;;;;;;;1.30;0.80;;;;;;;;;;5089973;28;20297;-75
2021/05/13 14:32:07;;;;;;;2.30;1.17;;;;;;;;;;5090398;28;20191;-76
2021/05/13 14:34:33;;;;;;;4.63;1.67;;;;;;;;;;5090342;28;20607;-75
2021/05/13 14:37:00;;;;;;;2.90;1.40;;;;;;;;;;5091030;28;20190;-75
2021/05/13 14:39:27;;;;;;;2.87;1.50;;;;;;;;;;5090260;28;20194;-75
2021/05/13 14:41:54;;;;;;;1.87;1.40;;;;;;;;;;5099044;28;20197;-75
2021/05/13 14:44:21;;;;;;;3.37;1.17;;;;;;;;;;5093756;28;20194;-76
2021/05/13 14:46:47;;;;;;;1.77;0.90;;;;;;;;;;5090081;28;20677;-76
2021/05/13 14:49:22;;;;;;;2.70;1.13;;;;;;;;;;5090915;28;20237;-75